• Join FlightAware (Why Join?)
  • Login
  • US Flag 
01:22PM EDT


 

Airport Tracker/Info


-or-


 

Live Flight TrackerFlight Track Log ✈ LAK145 ✈ 22-Mar-2014 ✈ KRGK - KCHA

Flight Track Log - Related Links

Times and Time Zones

All times are in EDT time to prevent confusion due to time zone crossing. See the LAK145 flight status page for this flight to view local times or setup timezone preferences in your user account.

Time Position Orientation Groundspeed Altitude Reporting Facility
EDT Latitude Longitude Course Direction KTS MPH feet Rate Location/Type
10:52AM 44.5894 -92.4989 130° Southeast 115 132 2,000  Level Minneapolis Center
10:53AM 44.5533 -92.5328 214° Southwest 202 232 4,800 2,580 Climbing Minneapolis Center
10:54AM 44.5069 -92.4572 131° Southeast 256 295 7,300 2,400 Climbing Minneapolis Center
10:55AM 44.1794 -91.8610 134° Southeast  Level FlightAware Approximate
10:55AM 44.4517 -92.3658 130° Southeast 285 328 9,800  Level Minneapolis Center
10:56AM 44.1092 -91.7606 134° Southeast  Level FlightAware Approximate
10:56AM 44.3981 -92.2828 132° Southeast 305 351 12,600  Level Minneapolis Center
10:57AM 44.0397 -91.6595 133° Southeast  Level FlightAware Approximate
10:57AM 44.3436 -92.1856 128° Southeast 313 360 16,000  Level Minneapolis Center
10:58AM 43.9693 -91.5599 130° Southeast  Level FlightAware Approximate
10:58AM 44.2742 -92.0689 130° Southeast 322 371 19,300  Level Minneapolis Center
10:59AM 44.2072 -91.9553 129° Southeast 356 410 22,400 2,580 Climbing Minneapolis Center
11:00AM 44.1353 -91.8394 131° Southeast 377 434 24,600 1,980 Climbing Minneapolis Center
11:01AM 44.0431 -91.7447 144° Southeast 419 482 26,500 1,620 Climbing Minneapolis Center
11:03AM 43.9406 -91.6681 152° Southeast 422 486 28,000 1,440 Climbing Minneapolis Center
11:04AM 43.8322 -91.5900 153° Southeast 433 498 29,500 1,440 Climbing Minneapolis Center
11:05AM 43.7219 -91.5106 152° Southeast 442 509 31,000 1,560 Climbing Minneapolis Center
11:06AM 43.5914 -91.4167 152° Southeast 442 509 32,800 1,560 Climbing Minneapolis Center
11:07AM 43.4831 -91.3411 153° Southeast 442 509 34,300 1,440 Climbing Minneapolis Center
11:08AM 43.3781 -91.2650 152° Southeast 435 501 35,800 1,380 Climbing Minneapolis Center
11:08AM 43.3156 -91.2258 155° Southeast 424 488 36,700 1,320 Climbing Chicago Center
11:09AM 43.2147 -91.1522 152° Southeast 416 479 38,100 1,080 Climbing Chicago Center
11:10AM 43.0956 -91.0708 153° Southeast 400 460 39,000 420 Climbing Chicago Center
11:11AM 42.9933 -90.9964 152° Southeast 411 473 39,000 120 Level Chicago Center
11:12AM 42.8886 -90.9253 154° Southeast 416 479 39,300 420 Climbing Chicago Center
11:13AM 42.7817 -90.8508 153° Southeast 427 491 39,900 540 Climbing Chicago Center
11:15AM 42.5928 -90.7189 153° Southeast 418 481 41,000 300 Climbing Kansas City Center
11:17AM 42.4686 -90.6350 154° Southeast 426 490 41,000  Level Chicago Center
11:18AM 42.3386 -90.5472 153° Southeast 433 498 41,000  Level Chicago Center
11:19AM 42.2289 -90.4703 153° Southeast 444 511 41,000  Level Chicago Center
11:20AM 42.1197 -90.3986 154° Southeast 439 505 41,000  Level Chicago Center
11:21AM 42.0117 -90.3258 153° Southeast 439 505 41,000  Level Chicago Center
11:22AM 41.9050 -90.2558 154° Southeast 433 498 41,000  Level Chicago Center
11:23AM 41.7928 -90.1789 153° Southeast 432 497 41,000  Level Chicago Center
11:24AM 41.6869 -90.1089 154° Southeast 427 491 41,000  Level Chicago Center
11:25AM 41.5819 -90.0417 154° Southeast 421 484 41,000  Level Chicago Center
11:26AM 41.4794 -89.9700 152° Southeast 419 482 41,000  Level Chicago Center
11:27AM 41.3550 -89.8894 154° Southeast 417 480 41,000  Level Chicago Center
11:28AM 41.2514 -89.8228 154° Southeast 416 479 41,000  Level Chicago Center
11:29AM 41.1497 -89.7539 153° Southeast 413 475 41,000  Level Chicago Center
11:30AM 41.0464 -89.6881 154° Southeast 412 474 41,000  Level Chicago Center
11:31AM 40.9425 -89.6197 154° Southeast 410 472 41,000  Level Chicago Center
11:32AM 40.8433 -89.5569 154° Southeast 404 465 41,000  Level Chicago Center
11:33AM 40.7367 -89.4881 154° Southeast 409 471 41,000  Level Chicago Center
11:34AM 40.6344 -89.4214 154° Southeast 408 470 41,000  Level Chicago Center
11:35AM 40.5331 -89.3569 154° Southeast 406 467 41,000  Level Chicago Center
11:36AM 40.4319 -89.2919 154° Southeast 404 465 41,000  Level Chicago Center
11:37AM 40.3106 -89.2167 155° Southeast 401 461 41,000  Level Chicago Center
11:38AM 40.2097 -89.1511 154° Southeast 401 461 41,000  Level Chicago Center
11:39AM 40.1094 -89.0875 154° Southeast 400 460 41,000  Level Chicago Center
11:40AM 40.0089 -89.0242 154° Southeast 400 460 41,000  Level Chicago Center
11:41AM 39.9089 -88.9617 154° Southeast 399 459 41,000  Level Chicago Center
11:42AM 39.8075 -88.9003 155° Southeast 400 460 41,000  Level Chicago Center
11:43AM 39.7069 -88.8353 154° Southeast 401 461 41,000  Level Chicago Center
11:44AM 39.6058 -88.7736 155° Southeast 401 461 41,000  Level Chicago Center
11:45AM 39.4828 -88.6961 154° Southeast 404 465 41,000  Level Indianapolis Center
11:46AM 39.3808 -88.6336 155° Southeast 404 465 41,000  Level Indianapolis Center
11:47AM 39.2767 -88.5717 155° Southeast 403 464 41,000  Level Kansas City Center
11:48AM 39.1744 -88.5086 154° Southeast 404 465 41,000  Level Kansas City Center
11:49AM 39.0714 -88.4461 155° Southeast 404 465 41,000  Level Kansas City Center
11:51AM 38.9686 -88.3806 154° Southeast 406 467 41,000  Level Kansas City Center
11:52AM 38.8636 -88.3192 156° South 408 470 41,000  Level Indianapolis Center
11:53AM 38.7597 -88.2572 155° Southeast 409 471 41,000  Level Indianapolis Center
11:54AM 38.6356 -88.1817 155° Southeast 409 471 41,000  Level Indianapolis Center
11:55AM 38.5314 -88.1219 156° South 409 471 41,000  Level Indianapolis Center
11:56AM 38.4289 -88.0578 154° Southeast 409 471 41,000  Level Indianapolis Center
11:57AM 38.3253 -87.9989 156° South 409 471 41,000  Level Indianapolis Center
11:58AM 38.2228 -87.9358 154° Southeast 409 471 41,000  Level Indianapolis Center
11:59AM 38.1217 -87.8761 155° Southeast 407 468 41,000  Level Indianapolis Center
12:00PM 38.0189 -87.8147 155° Southeast 407 468 41,000  Level Indianapolis Center
12:01PM 37.9161 -87.7542 155° Southeast 407 468 41,000  Level Indianapolis Center
12:02PM 37.8136 -87.6919 154° Southeast 407 468 41,000  Level Indianapolis Center
12:03PM 37.7039 -87.6228 153° Southeast 407 468 41,000  Level Indianapolis Center
12:04PM 37.5997 -87.5611 155° Southeast 407 468 41,000  Level Indianapolis Center
12:05PM 37.4972 -87.4958 153° Southeast 408 470 41,000  Level Indianapolis Center
12:06PM 37.3761 -87.4236 155° Southeast 408 470 41,000  Level Indianapolis Center
12:07PM 37.2719 -87.3617 155° Southeast 408 470 41,000  Level Indianapolis Center
12:08PM 37.1672 -87.2975 154° Southeast 409 471 41,000  Level Indianapolis Center
12:09PM 37.0981 -87.2553 154° Southeast 411 473 41,000  Level Memphis Center
12:10PM 36.9922 -87.1917 154° Southeast 413 475 41,000  Level Memphis Center
12:11PM 36.8864 -87.1294 155° Southeast 414 476 41,000 -660 Level Memphis Center
12:12PM 36.7789 -87.0636 154° Southeast 419 482 39,700 -1,380 Descending Memphis Center
12:13PM 36.6681 -86.9986 155° Southeast 431 496 38,200 -1,560 Descending Memphis Center
12:14PM 36.5553 -86.9303 154° Southeast 438 504 36,500 -1,560 Descending Memphis Center
12:15PM 36.4417 -86.8639 155° Southeast 442 509 35,000 -960 Descending Memphis Center
12:16PM 36.3319 -86.8006 155° Southeast 442 509 34,600 -780 Descending Memphis Center
12:17PM 36.2094 -86.7278 154° Southeast 442 509 33,400 -780 Descending Memphis Center
12:18PM 36.1056 -86.6422 146° Southeast 446 513 33,000 -240 Descending Memphis Center
12:19PM 36.0056 -86.5064 132° Southeast 449 517 33,000  Level Memphis Center
12:20PM 35.9206 -86.3914 132° Southeast 449 517 33,000 -300 Level Memphis Center
12:21PM 35.8858 -86.2367 105° East 478 550 32,500 -1,020 Descending Memphis Center
12:22PM 35.8817 -86.0642 92° East 496 571 31,000 -1,860 Descending Memphis Center
12:23PM 35.8214 -85.9189 117° Southeast 484 557 28,700 -2,700 Descending Memphis Center
12:24PM 35.7206 -85.8244 143° Southeast 433 498 25,500 -3,300 Descending Memphis Center
12:25PM 35.6367 -85.7481 143° Southeast 390 449 21,900 -3,720 Descending Memphis Center
12:26PM 35.5589 -85.6742 142° Southeast 364 419 17,900 -3,900 Descending Memphis Center
12:27PM 35.4819 -85.6075 145° Southeast 345 397 13,900 -3,360 Descending Memphis Center
12:28PM 35.3989 -85.5308 143° Southeast 320 368 11,000 -2,040 Descending Memphis Center
12:29PM 35.3361 -85.4747 144° Southeast 287 330 9,700 -1,620 Descending Memphis Center
12:30PM 35.2736 -85.4058 138° Southeast 299 344 7,700 -1,980 Descending Memphis Center
12:31PM 35.2275 -85.3444 133° Southeast 254 292 5,700 -1,980 Descending Memphis Center
12:32PM 35.1831 -85.2883 134° Southeast 239 275 3,700 -1,200 Descending Memphis Center
12:33PM 35.1514 -85.2239 121° Southeast 205 236 3,300 -540 Descending Memphis Center
12:34PM 35.1225 -85.1756 126° Southeast 186 214 2,700 -780 Descending Memphis Center
12:36PM 35.0831 -85.1858 192° South 160 184 1,700 -900 Descending Memphis Center
12:37PM 35.0533 -85.1978 198° South 133 153 900 -780 Descending Memphis Center
12:39PM 35.0333 -85.2000 331° Northwest  Level FlightAware Approximate